Terminal Aerodrome Forecast
Issued by NWS

Home | Current Version | Previous Version | Text Only | Print | Product List | Glossary On
Versions: 1 2 3 4 5 6 7 8 9 10 11 12 13 14 15 16
000
FTUS46 KMFR 250500
TAFRBG
TAF
KRBG 250538Z 2506/2606 VRB03KT P6SM -SHRA SCT020 BKN035
     FM250900 VRB02KT P6SM -SHRA BKN025
     FM251300 VRB03KT P6SM -SHRA BKN020CB OVC040
     FM251900 34006KT P6SM VCSH SCT020 BKN040
     FM260200 35003KT P6SM SCT025=

USA.gov is the U.S. government's official web portal to all federal, state and local government web resources and services.